Avisos AEMET Campiña SevillanaSin Avisos    + INFO

Informes METAR cercanos

 

LEZL - Sevilla (civ/Mil, Spain
Distancia de la estación: O 16km
Actualización: 29/01/2022 05:00
Despejado
Despejado
 Viento del ENE
Viento: ENE 26 km/h
Temperatura: 12°C
Rocío: 2°C
Humedad: 51%
Barómetro: 1027 hPa
Resumen: Despejado
Visibilidad: más de 10 km
2022/01/29 04:00 LEZL 290400Z AUTO 06014KT CAVOK 12/02 Q1027
LEMO - Moron (sp-Usafb), Spain
Distancia de la estación: SSE 27km
Actualización: 29/01/2022 05:00
Despejado
Despejado
 Viento del ENE
Viento: ENE 19 km/h
Temperatura: 10°C
Sensación Térmica: 7°C
Rocío: 5°C
Humedad: 71%
Barómetro: 1027 hPa
Resumen: Despejado
Visibilidad: más de 10 km
2022/01/29 04:00 LEMO 290400Z 06010KT CAVOK 10/05 Q1027 NOSIG